Time;durP1;ratioP1;P1;durP2;ratioP2;P2;SDS_P1;SDS_P2;PMS_P1;PMS_P2;Temp;Humidity;BMP_temperature;BMP_pressure;BME280_temperature;BME280_humidity;BME280_pressure;Samples;Min_cycle;Max_cycle;Signal;HPM_P1;HPM_P2
2022/04/22 00:02:33;;;;;;;12.27;3.88;;;13.00;58.40;;;;;;9183741;19;20018;-65
2022/04/22 00:05:38;;;;;;;11.60;3.95;;;12.90;58.50;;;;;;9182213;19;20527;-65
2022/04/22 00:08:46;;;;;;;8.40;4.18;;;12.90;58.60;;;;;;9179378;19;20037;-64
2022/04/22 00:11:51;;;;;;;8.10;3.88;;;12.90;58.80;;;;;;9180657;19;20022;-65
2022/04/22 00:14:56;;;;;;;8.80;4.00;;;12.80;58.80;;;;;;9183850;19;20060;-65
2022/04/22 00:18:04;;;;;;;10.15;4.40;;;12.80;59.00;;;;;;9181675;19;20539;-65
2022/04/22 00:21:09;;;;;;;9.55;4.15;;;12.80;59.10;;;;;;9181574;19;20018;-64
2022/04/22 00:24:17;;;;;;;11.27;4.35;;;12.80;59.20;;;;;;9183581;19;20029;-65
2022/04/22 00:27:22;;;;;;;12.48;5.20;;;12.70;59.40;;;;;;9182669;19;20029;-65
2022/04/22 00:30:29;;;;;;;10.20;5.13;;;12.70;59.50;;;;;;9181178;19;20018;-64
2022/04/22 00:33:34;;;;;;;10.07;5.28;;;12.60;59.50;;;;;;9181170;19;20043;-65
2022/04/22 00:36:39;;;;;;;13.05;5.20;;;12.60;59.70;;;;;;9182033;19;20033;-64
2022/04/22 00:39:47;;;;;;;9.30;4.80;;;12.50;59.80;;;;;;9182401;19;20015;-64
2022/04/22 00:42:52;;;;;;;8.77;5.15;;;12.40;59.90;;;;;;9180962;19;20014;-65
2022/04/22 00:45:57;;;;;;;9.73;4.80;;;12.40;60.00;;;;;;9182473;19;20364;-64
2022/04/22 00:49:02;;;;;;;11.73;5.32;;;12.40;60.20;;;;;;9179728;19;20364;-65
2022/04/22 00:52:11;;;;;;;9.90;4.95;;;12.30;60.20;;;;;;9178151;19;20006;-65
2022/04/22 00:55:19;;;;;;;11.45;5.32;;;12.30;60.40;;;;;;9181191;19;20019;-64
2022/04/22 00:58:24;;;;;;;7.97;5.38;;;12.20;60.50;;;;;;9180957;19;20015;-65
2022/04/22 01:01:30;;;;;;;8.93;4.78;;;12.20;60.60;;;;;;9180167;19;20018;-64
2022/04/22 01:11:19;;;;;;;10.45;5.78;;;12.00;60.80;;;;;;9174604;19;20082;-65
2022/04/22 01:14:24;;;;;;;12.10;5.53;;;12.00;61.00;;;;;;9182020;19;20475;-65
2022/04/22 01:17:30;;;;;;;11.05;5.25;;;11.90;61.00;;;;;;9178137;19;20022;-65
2022/04/22 01:20:34;;;;;;;9.48;5.32;;;11.90;61.20;;;;;;9180452;19;20010;-64
2022/04/22 01:23:42;;;;;;;13.98;5.95;;;11.80;61.30;;;;;;9181624;19;20015;-65
2022/04/22 01:26:48;;;;;;;10.88;5.30;;;11.70;61.40;;;;;;9178902;19;20974;-65
2022/04/22 01:29:53;;;;;;;13.95;5.38;;;11.70;61.50;;;;;;9178932;19;20527;-65
2022/04/22 01:32:59;;;;;;;10.85;6.22;;;11.60;61.50;;;;;;9174920;19;20015;-65
2022/04/22 01:36:05;;;;;;;9.70;5.22;;;11.60;61.70;;;;;;9181759;19;20021;-64
2022/04/22 01:39:12;;;;;;;12.57;5.15;;;11.60;61.80;;;;;;9186461;19;20022;-64
2022/04/22 01:42:18;;;;;;;11.93;5.65;;;11.50;61.90;;;;;;9189909;19;20479;-64
2022/04/22 01:45:23;;;;;;;10.13;5.63;;;11.50;61.90;;;;;;9188695;19;20010;-65
2022/04/22 01:48:30;;;;;;;12.55;6.07;;;11.50;62.10;;;;;;9187607;19;20010;-64
2022/04/22 01:51:35;;;;;;;13.40;6.03;;;11.40;62.20;;;;;;9187126;19;20039;-65
2022/04/22 01:54:43;;;;;;;8.50;5.85;;;11.40;62.30;;;;;;9187678;19;20014;-64
2022/04/22 01:57:48;;;;;;;12.00;5.63;;;11.40;62.40;;;;;;9188847;19;20019;-64
2022/04/22 02:00:53;;;;;;;11.18;5.93;;;11.30;62.40;;;;;;9187848;19;20014;-65
2022/04/22 02:03:59;;;;;;;11.85;5.68;;;11.30;62.50;;;;;;9186848;19;20007;-65
2022/04/22 02:07:04;;;;;;;9.23;5.57;;;11.20;62.60;;;;;;9184138;19;20029;-64
2022/04/22 02:10:13;;;;;;;10.43;5.43;;;11.30;62.70;;;;;;9182503;19;20494;-65
2022/04/22 02:13:17;;;;;;;10.50;5.20;;;11.20;62.90;;;;;;9185956;19;20017;-64
2022/04/22 02:16:22;;;;;;;10.77;6.10;;;11.20;62.90;;;;;;9186417;19;20029;-64
2022/04/22 02:19:27;;;;;;;10.43;5.75;;;11.10;62.90;;;;;;9186634;19;20497;-65
2022/04/22 02:22:34;;;;;;;12.93;5.45;;;11.10;63.00;;;;;;9185395;19;20015;-64
2022/04/22 02:25:42;;;;;;;11.05;6.18;;;11.10;63.10;;;;;;9187967;19;20387;-65
2022/04/22 02:28:47;;;;;;;9.00;6.10;;;11.10;63.10;;;;;;9185166;19;20025;-65
2022/04/22 02:31:53;;;;;;;11.70;6.40;;;11.10;63.20;;;;;;9185882;19;20081;-64
2022/04/22 02:34:58;;;;;;;9.90;6.07;;;11.10;63.30;;;;;;9187557;19;20430;-65
2022/04/22 02:38:03;;;;;;;8.68;5.68;;;11.10;63.30;;;;;;9186205;19;20011;-65
2022/04/22 02:47:46;;;;;;;12.27;5.88;;;11.00;63.50;;;;;;9182292;19;20048;-63
2022/04/22 02:50:51;;;;;;;12.10;6.28;;;10.90;63.50;;;;;;9187692;19;20013;-64
2022/04/22 02:53:56;;;;;;;11.82;5.57;;;10.90;63.60;;;;;;9185358;19;20019;-65
2022/04/22 02:57:04;;;;;;;10.57;5.50;;;10.80;63.60;;;;;;9187709;19;20078;-65
2022/04/22 03:00:10;;;;;;;8.25;5.47;;;10.80;63.80;;;;;;9187678;19;20020;-64
2022/04/22 03:03:16;;;;;;;12.43;5.88;;;10.80;63.80;;;;;;9185614;19;20029;-64
2022/04/22 03:06:23;;;;;;;9.68;6.38;;;10.80;63.90;;;;;;9187287;19;20018;-64
2022/04/22 03:09:28;;;;;;;8.80;5.70;;;10.70;64.00;;;;;;9179184;19;20029;-64
2022/04/22 03:12:35;;;;;;;12.18;6.45;;;10.70;64.00;;;;;;9183648;19;20010;-65
2022/04/22 03:15:41;;;;;;;9.48;6.15;;;10.70;64.10;;;;;;9183707;19;20014;-65
2022/04/22 03:18:46;;;;;;;12.30;6.72;;;10.60;64.10;;;;;;9184953;19;20441;-65
2022/04/22 03:21:51;;;;;;;10.35;5.93;;;10.60;64.20;;;;;;9183499;19;20085;-64
2022/04/22 03:24:56;;;;;;;11.52;6.45;;;10.60;64.30;;;;;;9183714;19;20022;-64
2022/04/22 03:28:06;;;;;;;10.90;6.40;;;10.60;64.40;;;;;;9186092;19;20373;-64
2022/04/22 03:31:11;;;;;;;13.35;6.35;;;10.60;64.50;;;;;;9186286;19;20014;-64
2022/04/22 03:34:16;;;;;;;12.27;6.68;;;10.50;64.50;;;;;;9181309;19;20038;-65
2022/04/22 03:37:21;;;;;;;12.32;7.18;;;10.50;64.50;;;;;;9185508;19;20588;-65
2022/04/22 03:40:26;;;;;;;14.98;6.97;;;10.50;64.60;;;;;;9184569;19;20015;-65
2022/04/22 03:43:34;;;;;;;21.02;7.40;;;10.50;64.70;;;;;;9183569;19;20011;-65
2022/04/22 03:46:39;;;;;;;15.38;6.88;;;10.50;64.70;;;;;;9184889;19;20413;-66
2022/04/22 03:49:44;;;;;;;13.38;7.63;;;10.50;64.70;;;;;;9183538;19;20377;-65
2022/04/22 03:52:49;;;;;;;14.43;7.47;;;10.40;64.70;;;;;;9183194;19;20320;-65
2022/04/22 03:55:54;;;;;;;20.33;8.63;;;10.40;64.80;;;;;;9184301;19;20025;-65
2022/04/22 03:58:59;;;;;;;23.48;8.77;;;10.40;64.80;;;;;;9182607;19;20014;-64
2022/04/22 04:02:04;;;;;;;17.33;8.93;;;10.40;65.00;;;;;;9183233;19;20018;-64
2022/04/22 04:05:10;;;;;;;18.42;8.70;;;10.30;65.00;;;;;;9180190;19;20624;-64
2022/04/22 04:08:16;;;;;;;24.00;9.00;;;10.30;65.10;;;;;;9181737;19;20701;-65
2022/04/22 04:17:59;;;;;;;25.30;9.63;;;10.20;65.20;;;;;;9181924;19;20018;-64
2022/04/22 04:24:24;;;;;;;20.83;10.10;;;10.10;65.30;;;;;;9181372;19;20054;-64
2022/04/22 04:27:29;;;;;;;25.92;10.35;;;10.10;65.30;;;;;;9183967;19;20025;-65
2022/04/22 04:30:36;;;;;;;30.17;11.38;;;10.00;65.40;;;;;;9182196;19;20479;-64
2022/04/22 04:33:42;;;;;;;22.50;10.82;;;10.00;65.50;;;;;;9181214;19;20394;-64
2022/04/22 04:36:53;;;;;;;24.73;11.45;;;10.00;65.50;;;;;;9181915;19;20040;-64
2022/04/22 04:39:58;;;;;;;24.25;11.55;;;9.90;65.50;;;;;;9183455;19;20023;-65
2022/04/22 04:43:05;;;;;;;26.80;11.35;;;9.90;65.60;;;;;;9183467;19;20010;-64
2022/04/22 04:46:13;;;;;;;24.02;11.30;;;9.80;65.60;;;;;;9182783;19;20011;-64
2022/04/22 04:49:18;;;;;;;31.13;12.20;;;9.80;66.40;;;;;;9182806;19;20085;-64
2022/04/22 04:52:23;;;;;;;31.08;11.73;;;9.70;65.70;;;;;;9181347;19;20560;-64
2022/04/22 04:55:29;;;;;;;35.25;12.70;;;9.70;65.80;;;;;;9179588;19;20018;-64
2022/04/22 04:58:35;;;;;;;27.92;11.98;;;9.70;65.90;;;;;;9179961;19;20017;-65
2022/04/22 05:01:42;;;;;;;25.00;11.77;;;9.60;65.90;;;;;;9181431;19;20015;-65
2022/04/22 05:04:47;;;;;;;26.25;11.27;;;9.60;66.10;;;;;;9180259;19;20021;-64
2022/04/22 05:07:56;;;;;;;25.77;11.38;;;9.60;66.20;;;;;;9181170;19;20011;-64
2022/04/22 05:11:01;;;;;;;24.75;11.40;;;9.50;66.10;;;;;;9183080;19;20340;-64
2022/04/22 05:14:07;;;;;;;26.88;12.05;;;9.50;66.10;;;;;;9188736;19;20018;-64
2022/04/22 05:17:14;;;;;;;26.70;11.85;;;9.50;66.20;;;;;;9190848;19;20037;-65
2022/04/22 05:20:21;;;;;;;26.30;10.60;;;9.50;66.30;;;;;;9189251;19;20022;-65
2022/04/22 05:23:26;;;;;;;23.35;10.65;;;9.50;66.40;;;;;;9189102;19;20055;-64
2022/04/22 05:26:31;;;;;;;18.63;10.73;;;9.50;66.40;;;;;;9190070;19;20022;-64
2022/04/22 05:32:56;;;;;;;18.73;9.73;;;9.40;66.40;;;;;;9188862;19;20343;-64
2022/04/22 05:36:01;;;;;;;18.17;9.23;;;9.40;66.60;;;;;;9190086;19;20341;-63
2022/04/22 05:39:08;;;;;;;21.85;9.65;;;9.40;66.50;;;;;;9190026;19;20029;-64
2022/04/22 05:42:13;;;;;;;17.38;9.05;;;9.40;66.60;;;;;;9187337;19;20019;-64
2022/04/22 05:45:20;;;;;;;20.02;9.00;;;9.50;66.80;;;;;;9188000;19;20364;-64
2022/04/22 05:48:28;;;;;;;24.13;8.50;;;9.50;66.80;;;;;;9187741;19;20060;-65
2022/04/22 05:51:32;;;;;;;18.27;7.30;;;9.50;67.00;;;;;;9188230;19;20022;-64
2022/04/22 05:54:38;;;;;;;18.40;7.80;;;9.60;67.00;;;;;;9185005;19;20010;-65
2022/04/22 05:57:43;;;;;;;21.40;8.25;;;9.70;67.00;;;;;;9188423;19;20022;-64
2022/04/22 06:00:48;;;;;;;17.23;7.45;;;9.70;67.00;;;;;;9187030;19;20003;-64
2022/04/22 06:04:02;;;;;;;19.15;7.50;;;9.80;67.00;;;;;;9187678;19;20375;-64
2022/04/22 06:07:07;;;;;;;13.90;6.78;;;9.90;67.10;;;;;;9186239;19;20018;-66
2022/04/22 06:13:32;;;;;;;16.83;7.13;;;10.10;67.10;;;;;;9187318;19;20014;-66
2022/04/22 06:16:38;;;;;;;13.13;6.40;;;10.20;67.00;;;;;;9188923;19;20015;-66
2022/04/22 06:19:46;;;;;;;15.63;6.85;;;10.30;67.10;;;;;;9185714;19;20013;-66
2022/04/22 06:22:51;;;;;;;17.20;6.55;;;10.40;67.10;;;;;;9186342;19;20030;-64
2022/04/22 06:25:56;;;;;;;14.70;6.68;;;10.50;67.00;;;;;;9186555;19;20010;-64
2022/04/22 06:29:01;;;;;;;15.57;6.90;;;10.60;66.90;;;;;;9186280;19;20034;-64
2022/04/22 06:32:07;;;;;;;17.00;6.28;;;10.70;66.70;;;;;;9186574;19;20389;-65
2022/04/22 06:35:18;;;;;;;18.20;6.15;;;10.80;66.80;;;;;;9185500;19;20034;-64
2022/04/22 06:38:24;;;;;;;19.92;6.55;;;10.80;66.70;;;;;;9186136;19;20519;-64
2022/04/22 06:48:19;;;;;;;14.40;6.45;;;11.10;66.30;;;;;;9187353;19;20013;-65
2022/04/22 06:51:47;;;;;;;10.55;6.13;;;11.10;66.20;;;;;;9186850;19;20017;-66
2022/04/22 06:54:53;;;;;;;15.25;6.40;;;11.10;66.10;;;;;;9182935;19;20078;-64
2022/04/22 06:58:01;;;;;;;17.90;6.18;;;11.20;66.00;;;;;;9187727;19;20018;-64
2022/04/22 07:01:07;;;;;;;15.15;5.70;;;11.20;66.00;;;;;;9184243;19;20398;-65
2022/04/22 07:04:32;;;;;;;13.38;5.28;;;11.20;65.90;;;;;;9186318;19;20026;-65
2022/04/22 07:07:41;;;;;;;10.48;4.95;;;11.20;65.90;;;;;;9186628;19;20029;-64
2022/04/22 07:10:47;;;;;;;10.82;5.13;;;11.20;65.80;;;;;;9180415;19;20357;-65
2022/04/22 07:13:53;;;;;;;9.57;5.63;;;11.30;65.80;;;;;;9185125;19;20010;-65
2022/04/22 07:16:58;;;;;;;20.05;5.35;;;11.20;65.70;;;;;;9184357;19;20479;-65
2022/04/22 07:20:06;;;;;;;8.63;4.95;;;11.30;65.70;;;;;;9183446;19;20014;-65
2022/04/22 07:23:15;;;;;;;10.93;5.38;;;11.20;65.60;;;;;;9183229;19;20506;-65
2022/04/22 07:26:21;;;;;;;8.10;5.32;;;11.20;65.60;;;;;;9182455;19;20460;-65
2022/04/22 07:29:27;;;;;;;12.02;5.18;;;11.20;65.50;;;;;;9181624;19;20043;-64
2022/04/22 07:32:37;;;;;;;17.13;5.32;;;11.30;65.50;;;;;;9180420;19;20021;-64
2022/04/22 07:35:44;;;;;;;7.88;4.68;;;11.30;65.50;;;;;;9182462;19;20010;-65
2022/04/22 07:38:52;;;;;;;12.30;4.82;;;11.30;65.50;;;;;;9185574;19;20019;-64
2022/04/22 07:41:58;;;;;;;15.23;4.85;;;11.30;65.50;;;;;;9183283;19;20456;-65
2022/04/22 07:48:35;;;;;;;12.45;4.60;;;11.40;65.50;;;;;;9181341;19;20019;-65
2022/04/22 07:51:40;;;;;;;8.05;4.20;;;11.40;65.40;;;;;;9179989;19;20023;-65
2022/04/22 07:54:48;;;;;;;9.38;3.90;;;11.40;65.30;;;;;;9180493;19;20497;-65
2022/04/22 07:57:57;;;;;;;10.43;4.43;;;11.50;65.30;;;;;;9182721;19;20017;-64
2022/04/22 08:01:02;;;;;;;8.43;3.88;;;11.50;65.20;;;;;;9183287;19;20018;-65
2022/04/22 08:04:09;;;;;;;9.32;3.47;;;11.50;65.10;;;;;;9181822;19;20013;-65
2022/04/22 08:07:16;;;;;;;6.65;4.15;;;11.60;65.20;;;;;;9183892;19;20159;-65
2022/04/22 08:10:30;;;;;;;12.85;4.10;;;11.60;65.00;;;;;;9178509;19;20014;-66
2022/04/22 08:13:36;;;;;;;13.05;4.72;;;11.60;65.00;;;;;;9180771;19;20021;-65
2022/04/22 08:16:41;;;;;;;7.25;3.78;;;11.70;65.00;;;;;;9179862;19;20695;-65
2022/04/22 08:19:46;;;;;;;9.73;4.40;;;11.70;65.00;;;;;;9181426;19;20018;-65
2022/04/22 08:22:51;;;;;;;13.32;4.50;;;11.80;65.10;;;;;;9180156;19;20511;-65
2022/04/22 08:25:59;;;;;;;11.10;3.40;;;11.80;65.00;;;;;;9170859;19;20021;-66
2022/04/22 08:29:04;;;;;;;12.32;3.63;;;11.90;65.10;;;;;;9171375;19;20022;-65
2022/04/22 08:32:09;;;;;;;9.32;3.60;;;12.00;65.00;;;;;;9168244;19;20041;-66
2022/04/22 08:35:14;;;;;;;8.75;3.88;;;12.00;64.90;;;;;;9170547;19;20011;-63
2022/04/22 08:38:19;;;;;;;6.40;3.13;;;12.10;64.80;;;;;;9170639;19;20018;-64
2022/04/22 08:41:28;;;;;;;6.53;3.50;;;12.20;64.70;;;;;;9175232;19;20467;-65
2022/04/22 08:44:33;;;;;;;8.35;3.58;;;12.30;64.70;;;;;;9171567;19;20034;-64
2022/04/22 08:50:57;;;;;;;7.10;3.45;;;12.60;64.50;;;;;;9174638;19;20048;-64
2022/04/22 08:54:02;;;;;;;6.90;3.50;;;12.70;64.30;;;;;;9174547;19;20023;-65
2022/04/22 08:57:10;;;;;;;7.03;2.80;;;12.80;64.00;;;;;;9171119;19;20018;-65
2022/04/22 09:00:16;;;;;;;7.00;3.17;;;12.90;63.90;;;;;;9170118;19;20380;-65
2022/04/22 09:03:22;;;;;;;5.00;2.80;;;13.00;63.70;;;;;;9173481;19;20011;-65
2022/04/22 09:06:28;;;;;;;8.32;3.08;;;13.10;63.60;;;;;;9175129;19;20019;-65
2022/04/22 09:09:33;;;;;;;4.63;3.13;;;13.20;63.50;;;;;;9167364;19;20463;-65
2022/04/22 09:12:45;;;;;;;10.25;3.35;;;13.30;63.50;;;;;;9174300;19;20033;-65
2022/04/22 09:15:50;;;;;;;8.00;2.72;;;13.40;63.50;;;;;;9175811;19;20022;-64
2022/04/22 09:19:18;;;;;;;7.88;2.80;;;13.60;63.40;;;;;;9170965;19;20183;-64
2022/04/22 09:22:25;;;;;;;5.72;2.65;;;13.70;63.10;;;;;;9179476;19;20015;-65
2022/04/22 09:25:32;;;;;;;5.15;2.47;;;13.90;62.90;;;;;;9177011;19;20025;-65
2022/04/22 09:28:42;;;;;;;6.05;2.78;;;14.10;62.70;;;;;;9168160;19;20043;-65
2022/04/22 09:31:49;;;;;;;4.72;2.67;;;14.30;62.50;;;;;;9170835;19;20018;-66
2022/04/22 09:34:54;;;;;;;4.90;2.25;;;14.50;62.30;;;;;;9172210;19;20010;-66
2022/04/22 09:44:38;;;;;;;9.30;2.40;;;15.00;61.10;;;;;;9175451;19;20015;-66
2022/04/22 09:47:44;;;;;;;4.35;2.30;;;15.20;60.70;;;;;;9173683;19;20071;-67
2022/04/22 09:50:52;;;;;;;7.43;2.60;;;15.30;60.50;;;;;;9172749;19;20018;-61
2022/04/22 09:54:05;;;;;;;12.63;2.65;;;15.80;59.80;;;;;;9172154;19;20011;-62
2022/04/22 09:57:10;;;;;;;4.80;1.80;;;16.60;57.90;;;;;;9176541;19;20490;-62
2022/04/22 10:00:20;;;;;;;3.58;1.80;;;17.10;57.00;;;;;;9187845;19;20021;-62
2022/04/22 10:03:36;;;;;;;6.97;2.28;;;17.40;56.20;;;;;;9185738;19;20021;-60
2022/04/22 10:06:42;;;;;;;6.53;2.47;;;17.60;55.70;;;;;;9185612;19;20018;-62
2022/04/22 10:09:48;;;;;;;13.65;2.40;;;18.00;55.50;;;;;;9177745;19;20361;-61
2022/04/22 10:12:57;;;;;;;5.30;2.28;;;18.50;55.00;;;;;;9185734;19;20018;-61
2022/04/22 10:16:05;;;;;;;3.75;2.22;;;19.00;54.10;;;;;;9180546;19;20014;-61
2022/04/22 10:19:12;;;;;;;11.00;2.17;;;19.50;53.20;;;;;;9180258;19;20360;-62
2022/04/22 10:22:19;;;;;;;4.57;2.10;;;20.10;52.00;;;;;;9181654;19;20037;-61
2022/04/22 10:25:25;;;;;;;4.35;2.10;;;20.80;51.00;;;;;;9184447;19;20070;-62
2022/04/22 10:28:32;;;;;;;4.22;1.95;;;21.80;49.90;;;;;;9179460;19;20018;-61
2022/04/22 10:31:42;;;;;;;9.50;2.28;;;22.60;48.80;;;;;;9182393;19;20018;-62
2022/04/22 10:34:48;;;;;;;10.63;2.70;;;23.50;47.80;;;;;;9177541;19;20374;-63
2022/04/22 10:37:54;;;;;;;4.63;1.90;;;24.60;47.00;;;;;;9180227;19;20025;-62
2022/04/22 10:41:05;;;;;;;6.05;2.00;;;25.90;46.00;;;;;;9177441;19;20369;-60
2022/04/22 10:47:50;;;;;;;7.63;2.05;;;28.40;43.90;;;;;;9180506;19;21001;-66
2022/04/22 10:51:00;;;;;;;9.25;1.95;;;29.50;43.20;;;;;;9173423;19;20363;-68
2022/04/22 10:54:06;;;;;;;6.20;2.67;;;30.30;42.40;;;;;;9171344;19;20051;-68
2022/04/22 10:57:18;;;;;;;8.63;2.28;;;30.80;41.80;;;;;;9172676;19;20047;-66
2022/04/22 11:00:31;;;;;;;2.97;1.80;;;31.40;40.80;;;;;;9175517;19;20063;-68
2022/04/22 11:03:39;;;;;;;5.90;2.00;;;31.90;40.40;;;;;;9178887;19;20045;-68
2022/04/22 11:06:44;;;;;;;6.07;2.80;;;32.30;39.90;;;;;;9177007;19;20022;-66
2022/04/22 11:09:50;;;;;;;5.13;2.22;;;32.70;39.50;;;;;;9169891;19;20019;-65
2022/04/22 11:12:56;;;;;;;12.45;1.92;;;33.10;39.10;;;;;;9175930;19;20022;-66
2022/04/22 11:16:02;;;;;;;6.68;2.35;;;33.70;38.70;;;;;;9179435;19;20047;-65
2022/04/22 11:19:26;;;;;;;5.47;2.40;;;34.50;38.40;;;;;;9185730;19;20026;-65
2022/04/22 11:23:05;;;;;;;6.35;2.58;;;34.80;37.70;;;;;;9183052;19;20015;-66
2022/04/22 11:26:10;;;;;;;5.53;2.33;;;34.90;37.20;;;;;;9176411;19;20017;-67
2022/04/22 11:29:16;;;;;;;13.88;2.50;;;35.20;36.90;;;;;;9179254;19;20354;-65
2022/04/22 11:32:23;;;;;;;4.20;2.33;;;34.70;36.40;;;;;;9175295;19;20023;-66
2022/04/22 11:35:35;;;;;;;6.03;2.45;;;32.90;36.90;;;;;;9177063;19;20471;-66
2022/04/22 11:38:49;;;;;;;5.68;2.35;;;30.70;37.90;;;;;;9179229;19;20014;-67
2022/04/22 11:41:57;;;;;;;5.72;2.58;;;28.70;39.10;;;;;;9177154;19;20030;-70
2022/04/22 11:45:09;;;;;;;7.03;2.22;;;27.20;40.40;;;;;;9177201;19;20018;-69
2022/04/22 11:48:15;;;;;;;10.38;2.80;;;26.00;41.00;;;;;;9179275;19;20007;-69
2022/04/22 11:51:25;;;;;;;10.93;2.45;;;25.10;41.60;;;;;;9179337;19;20025;-68
2022/04/22 11:54:30;;;;;;;11.38;2.50;;;24.50;42.00;;;;;;9178160;19;20027;-67
2022/04/22 11:57:37;;;;;;;5.82;3.20;;;23.90;42.50;;;;;;9177394;19;20018;-67
2022/04/22 12:10:38;;;;;;;9.65;3.50;;;22.40;43.60;;;;;;9176985;19;20385;-71
2022/04/22 12:13:44;;;;;;;5.70;3.25;;;22.10;43.70;;;;;;9181444;19;20022;-68
2022/04/22 12:16:57;;;;;;;8.70;3.45;;;21.80;44.00;;;;;;9177587;19;20053;-67
2022/04/22 12:20:02;;;;;;;14.90;3.38;;;21.60;44.00;;;;;;9177150;19;20018;-67
2022/04/22 12:23:10;;;;;;;5.32;3.17;;;21.30;44.50;;;;;;9178404;19;20086;-68
2022/04/22 12:26:18;;;;;;;8.95;2.95;;;21.20;44.50;;;;;;9178674;19;20018;-68
2022/04/22 12:29:24;;;;;;;12.18;3.55;;;21.00;44.60;;;;;;9177167;19;20018;-67
2022/04/22 12:32:31;;;;;;;11.70;4.35;;;20.90;44.70;;;;;;9173098;19;20074;-67
2022/04/22 12:35:38;;;;;;;5.13;3.15;;;20.80;44.70;;;;;;9179035;19;20484;-66
2022/04/22 12:38:46;;;;;;;34.40;5.75;;;20.70;44.80;;;;;;9175989;19;20018;-67
2022/04/22 12:41:51;;;;;;;9.27;3.03;;;20.70;44.90;;;;;;9178805;19;20479;-68
2022/04/22 12:52:14;;;;;;;18.23;4.35;;;20.50;45.30;;;;;;9174873;19;20015;-68
2022/04/22 12:55:28;;;;;;;8.70;4.53;;;20.40;45.30;;;;;;9179977;19;20010;-68
2022/04/22 12:58:33;;;;;;;8.35;3.65;;;20.30;45.50;;;;;;9175669;19;20119;-66
2022/04/22 13:01:39;;;;;;;6.70;3.55;;;20.20;45.60;;;;;;9179521;19;20483;-67
2022/04/22 13:05:00;;;;;;;9.07;3.92;;;20.20;45.80;;;;;;9178489;19;20030;-76
2022/04/22 13:08:15;;;;;;;6.95;3.80;;;20.10;46.00;;;;;;9175134;19;20026;-75
2022/04/22 13:11:23;;;;;;;9.10;3.50;;;20.00;46.30;;;;;;9173221;19;20015;-74
2022/04/22 13:14:28;;;;;;;30.55;6.60;;;19.90;46.50;;;;;;9175867;19;20401;-75
2022/04/22 13:17:34;;;;;;;8.82;4.38;;;19.90;46.70;;;;;;9180956;19;20015;-75
2022/04/22 13:20:39;;;;;;;12.75;3.47;;;19.80;46.80;;;;;;9180785;19;20424;-78
2022/04/22 13:23:44;;;;;;;6.38;3.97;;;19.80;46.90;;;;;;9178673;19;20014;-76
2022/04/22 13:26:54;;;;;;;9.70;3.97;;;19.70;47.00;;;;;;9177903;19;20055;-70
2022/04/22 13:30:00;;;;;;;12.70;3.75;;;19.70;47.10;;;;;;9175807;19;20061;-69
2022/04/22 13:33:06;;;;;;;15.00;4.35;;;19.60;47.10;;;;;;9185579;19;20022;-71
2022/04/22 13:36:12;;;;;;;7.05;3.67;;;19.50;47.20;;;;;;9182323;19;20140;-70
2022/04/22 13:39:18;;;;;;;15.57;3.92;;;19.50;47.30;;;;;;9179228;19;20819;-69
2022/04/22 13:42:26;;;;;;;7.13;4.03;;;19.40;47.40;;;;;;9178757;19;20099;-70
2022/04/22 13:52:25;;;;;;;7.57;3.55;;;19.30;47.60;;;;;;9181264;19;20018;-70
2022/04/22 13:55:30;;;;;;;7.03;3.45;;;19.20;47.60;;;;;;9180950;19;20022;-70
2022/04/22 13:58:39;;;;;;;8.05;3.55;;;19.30;47.90;;;;;;9181284;19;20018;-71
2022/04/22 14:01:44;;;;;;;13.38;3.95;;;19.20;47.80;;;;;;9181679;19;20018;-70
2022/04/22 14:04:50;;;;;;;9.75;4.03;;;19.20;47.90;;;;;;9180855;19;20010;-71
2022/04/22 14:07:56;;;;;;;11.35;4.43;;;19.20;48.10;;;;;;9176396;19;20368;-70
2022/04/22 14:11:01;;;;;;;11.40;4.38;;;19.20;48.00;;;;;;9173159;19;20048;-70
2022/04/22 14:14:09;;;;;;;8.90;4.35;;;19.30;48.00;;;;;;9180881;19;20023;-70
2022/04/22 14:17:15;;;;;;;10.13;4.95;;;19.20;48.00;;;;;;9178445;19;20022;-70
2022/04/22 14:20:20;;;;;;;8.20;4.28;;;19.20;48.00;;;;;;9180324;19;20779;-71
2022/04/22 14:23:31;;;;;;;11.07;4.30;;;19.20;48.00;;;;;;9178182;19;20019;-71
2022/04/22 14:26:39;;;;;;;8.23;4.57;;;19.10;48.00;;;;;;9177107;19;20671;-70
2022/04/22 14:30:10;;;;;;;9.18;4.47;;;19.10;48.10;;;;;;9179649;19;20018;-70
2022/04/22 14:33:15;;;;;;;9.70;4.18;;;19.10;48.20;;;;;;9177953;19;20027;-70
2022/04/22 14:36:24;;;;;;;9.50;4.82;;;19.10;48.30;;;;;;9175900;19;20014;-70
2022/04/22 14:39:29;;;;;;;16.02;4.70;;;19.00;48.30;;;;;;9174421;19;20094;-71
2022/04/22 14:42:34;;;;;;;5.90;3.47;;;19.00;48.30;;;;;;9178863;19;20013;-69
2022/04/22 14:45:43;;;;;;;11.40;4.38;;;19.00;48.40;;;;;;9174561;19;20014;-71
2022/04/22 14:48:48;;;;;;;10.13;4.65;;;18.90;48.40;;;;;;9176956;19;20018;-73
2022/04/22 14:51:56;;;;;;;12.40;4.28;;;19.00;48.50;;;;;;9175241;19;20037;-79
2022/04/22 14:55:05;;;;;;;11.35;4.18;;;19.00;48.60;;;;;;9177647;19;20018;-76
2022/04/22 14:58:11;;;;;;;9.27;4.05;;;19.00;48.70;;;;;;9178186;19;20491;-74
2022/04/22 15:01:20;;;;;;;16.27;4.97;;;19.00;48.60;;;;;;9180288;19;20017;-77
2022/04/22 15:04:28;;;;;;;5.85;3.97;;;19.10;48.70;;;;;;9175265;19;20524;-77
2022/04/22 15:07:33;;;;;;;17.80;4.72;;;19.10;48.70;;;;;;9176805;19;20018;-77
2022/04/22 15:10:38;;;;;;;12.00;3.78;;;19.10;49.30;;;;;;9177592;19;20458;-77
2022/04/22 15:13:44;;;;;;;9.27;4.68;;;19.10;48.80;;;;;;9178655;19;20026;-77
2022/04/22 15:16:51;;;;;;;12.32;4.30;;;19.10;48.90;;;;;;9182291;19;20055;-76
2022/04/22 15:26:41;;;;;;;17.85;6.25;;;19.00;49.10;;;;;;9173502;19;20026;-77
2022/04/22 15:29:48;;;;;;;12.25;4.32;;;19.00;49.20;;;;;;9172040;19;20699;-76
2022/04/22 15:32:56;;;;;;;8.35;4.65;;;19.00;49.20;;;;;;9174092;19;20042;-76
2022/04/22 15:36:05;;;;;;;11.63;4.70;;;18.90;49.20;;;;;;9179051;19;20014;-78
2022/04/22 15:39:12;;;;;;;10.23;4.07;;;18.90;49.20;;;;;;9179427;19;20026;-77
2022/04/22 15:42:18;;;;;;;12.73;5.00;;;18.90;49.20;;;;;;9177947;19;20018;-79
2022/04/22 15:45:23;;;;;;;11.18;4.85;;;18.80;49.30;;;;;;9179936;19;20007;-78
2022/04/22 15:48:36;;;;;;;8.60;4.13;;;18.80;49.30;;;;;;9177942;19;20098;-78
2022/04/22 15:51:42;;;;;;;8.15;4.30;;;18.80;49.30;;;;;;9179422;19;20018;-76
2022/04/22 15:54:47;;;;;;;9.38;4.28;;;18.70;49.30;;;;;;9178552;19;20341;-77
2022/04/22 15:57:52;;;;;;;10.70;4.55;;;18.70;49.30;;;;;;9182252;19;20014;-78
2022/04/22 16:00:57;;;;;;;8.18;4.32;;;18.60;49.30;;;;;;9182013;19;20059;-78
2022/04/22 16:04:09;;;;;;;10.73;4.45;;;18.60;49.40;;;;;;9182638;19;20508;-78
2022/04/22 16:07:18;;;;;;;9.15;4.40;;;18.50;49.50;;;;;;9181258;19;20015;-77
2022/04/22 16:10:26;;;;;;;12.45;4.57;;;18.50;49.60;;;;;;9176466;19;20024;-76
2022/04/22 16:17:03;;;;;;;8.90;3.95;;;18.40;49.70;;;;;;9179953;19;20555;-78
2022/04/22 16:20:12;;;;;;;8.35;4.18;;;18.30;49.70;;;;;;9182775;19;20096;-77
2022/04/22 16:23:17;;;;;;;9.82;4.30;;;18.40;49.80;;;;;;9180182;19;20022;-79
2022/04/22 16:26:25;;;;;;;10.63;3.70;;;18.30;49.90;;;;;;9181866;19;20019;-77
2022/04/22 16:29:33;;;;;;;10.38;5.32;;;18.30;49.90;;;;;;9180227;19;20013;-77
2022/04/22 16:32:39;;;;;;;9.85;4.47;;;18.30;49.90;;;;;;9178813;19;20015;-77
2022/04/22 16:35:47;;;;;;;10.48;3.78;;;18.30;50.00;;;;;;9176703;19;20015;-77
2022/04/22 16:38:54;;;;;;;8.30;3.72;;;18.20;50.00;;;;;;9181171;19;20019;-77
2022/04/22 16:42:02;;;;;;;7.93;3.95;;;18.20;50.10;;;;;;9181256;19;20036;-76
2022/04/22 16:45:09;;;;;;;12.07;4.30;;;18.20;50.10;;;;;;9179918;19;20017;-78
2022/04/22 16:48:17;;;;;;;6.28;4.15;;;18.20;50.20;;;;;;9177769;19;20018;-78
2022/04/22 16:51:28;;;;;;;9.07;3.83;;;18.10;50.30;;;;;;9179358;19;20022;-77
2022/04/22 16:54:33;;;;;;;12.88;4.60;;;18.10;50.40;;;;;;9180162;19;20029;-77
2022/04/22 16:57:40;;;;;;;11.02;4.97;;;18.10;50.40;;;;;;9179411;19;20010;-78
2022/04/22 17:00:49;;;;;;;17.58;5.18;;;18.10;50.40;;;;;;9178280;19;20033;-79
2022/04/22 17:03:54;;;;;;;12.05;4.55;;;18.10;50.50;;;;;;9176972;19;20018;-77
2022/04/22 17:07:03;;;;;;;11.05;4.38;;;18.00;51.10;;;;;;9183026;19;20020;-77
2022/04/22 17:10:14;;;;;;;11.07;4.43;;;18.00;50.70;;;;;;9183934;19;20364;-76
2022/04/22 17:13:28;;;;;;;9.10;4.00;;;18.00;50.70;;;;;;9187482;19;20386;-78
2022/04/22 17:23:19;;;;;;;10.23;4.18;;;17.80;50.80;;;;;;9187155;19;20349;-76
2022/04/22 17:26:36;;;;;;;10.80;3.72;;;17.80;50.90;;;;;;9187440;19;20031;-78
2022/04/22 17:29:44;;;;;;;6.47;3.60;;;17.70;50.90;;;;;;9184817;19;20464;-77
2022/04/22 17:32:59;;;;;;;9.10;3.75;;;17.70;51.00;;;;;;9187333;19;20022;-77
2022/04/22 17:36:04;;;;;;;7.13;3.63;;;17.70;51.10;;;;;;9187885;19;20366;-78
2022/04/22 17:39:14;;;;;;;19.42;3.72;;;17.60;51.00;;;;;;9187968;19;20018;-75
2022/04/22 17:42:20;;;;;;;4.75;3.30;;;17.60;51.20;;;;;;9188514;19;20015;-77